createdAt,value
2022-10-08T00:01:22.720Z,3.10
2022-10-08T00:03:53.310Z,3.37
2022-10-08T00:06:23.044Z,2.83
2022-10-08T00:08:52.672Z,3.60
2022-10-08T00:11:22.820Z,2.90
2022-10-08T00:13:51.670Z,3.30
2022-10-08T00:16:22.692Z,3.17
2022-10-08T00:18:52.265Z,3.20
2022-10-08T00:21:21.519Z,3.00
2022-10-08T00:23:50.539Z,3.40
2022-10-08T00:26:20.892Z,4.97
2022-10-08T00:28:48.654Z,3.67
2022-10-08T00:31:19.853Z,3.13
2022-10-08T00:33:51.682Z,3.00
2022-10-08T00:36:19.460Z,3.50
2022-10-08T00:38:47.088Z,3.60
2022-10-08T00:41:20.743Z,3.50
2022-10-08T00:43:49.603Z,3.57
2022-10-08T00:46:26.415Z,3.00
2022-10-08T00:49:06.201Z,3.10
2022-10-08T00:51:34.951Z,3.80
2022-10-08T00:54:03.036Z,3.60
2022-10-08T00:56:33.637Z,3.07
2022-10-08T00:59:02.140Z,2.93
2022-10-08T01:01:30.482Z,3.30
2022-10-08T01:04:07.568Z,3.33
2022-10-08T01:06:43.041Z,3.27
2022-10-08T01:09:18.674Z,3.33
2022-10-08T01:11:50.589Z,3.50
2022-10-08T01:14:26.339Z,3.60
2022-10-08T01:17:00.284Z,3.67
2022-10-08T01:19:43.581Z,3.70
2022-10-08T01:22:21.567Z,3.63
2022-10-08T01:25:07.825Z,3.63
2022-10-08T01:27:42.285Z,3.67
2022-10-08T01:30:15.548Z,3.93
2022-10-08T01:32:51.878Z,3.70
2022-10-08T01:35:24.006Z,3.40
2022-10-08T01:37:56.086Z,3.20
2022-10-08T01:40:27.261Z,3.53
2022-10-08T01:42:57.570Z,3.83
2022-10-08T01:45:28.796Z,4.03
2022-10-08T01:47:57.241Z,3.63
2022-10-08T01:50:28.156Z,3.67
2022-10-08T01:52:58.907Z,4.00
2022-10-08T01:55:29.286Z,3.80
2022-10-08T01:58:02.798Z,3.90
2022-10-08T02:00:32.110Z,4.10
2022-10-08T02:02:59.684Z,4.10
2022-10-08T02:05:29.502Z,3.67
2022-10-08T02:07:57.088Z,4.10
2022-10-08T02:10:25.713Z,4.30
2022-10-08T02:12:53.672Z,3.83
2022-10-08T02:15:24.798Z,3.87
2022-10-08T02:17:58.879Z,3.70
2022-10-08T02:20:32.413Z,3.80
2022-10-08T02:23:05.000Z,4.03
2022-10-08T02:25:36.984Z,4.60
2022-10-08T02:28:09.185Z,4.00
2022-10-08T02:30:47.389Z,4.23
2022-10-08T02:33:17.895Z,3.90
2022-10-08T02:35:48.623Z,4.07
2022-10-08T02:38:19.830Z,4.23
2022-10-08T02:40:51.372Z,3.80
2022-10-08T02:43:22.402Z,4.30
2022-10-08T02:45:55.307Z,4.00
2022-10-08T02:48:28.339Z,3.93
2022-10-08T02:50:57.551Z,3.60
2022-10-08T02:53:26.517Z,3.87
2022-10-08T02:56:02.444Z,4.63
2022-10-08T02:58:30.214Z,4.13
2022-10-08T03:01:03.935Z,4.50
2022-10-08T03:03:36.588Z,3.50
2022-10-08T03:06:06.198Z,4.00
2022-10-08T03:08:35.900Z,3.90
2022-10-08T03:11:03.832Z,3.80
2022-10-08T03:13:31.794Z,3.90
2022-10-08T03:16:00.878Z,3.90
2022-10-08T03:18:28.532Z,3.63
2022-10-08T03:20:56.220Z,3.87
2022-10-08T03:23:25.019Z,3.50
2022-10-08T03:25:52.616Z,3.87
2022-10-08T03:28:20.198Z,4.47
2022-10-08T03:30:48.156Z,4.23
2022-10-08T03:33:17.118Z,3.77
2022-10-08T03:35:46.073Z,4.43
2022-10-08T03:38:15.384Z,3.60
2022-10-08T03:40:43.011Z,3.03
2022-10-08T03:43:10.640Z,3.90
2022-10-08T03:45:38.226Z,3.47
2022-10-08T03:48:05.812Z,3.40
2022-10-08T03:50:35.396Z,3.17
2022-10-08T03:53:02.950Z,4.17
2022-10-08T03:55:30.488Z,3.27
2022-10-08T03:57:58.112Z,2.97
2022-10-08T04:00:25.807Z,2.73
2022-10-08T04:02:53.417Z,2.83
2022-10-08T04:05:21.026Z,3.07
2022-10-08T04:07:49.994Z,2.63
2022-10-08T04:10:17.597Z,2.87
2022-10-08T04:12:45.518Z,3.30
2022-10-08T04:15:13.301Z,2.80
2022-10-08T04:17:41.704Z,2.90
2022-10-08T04:20:10.180Z,2.83
2022-10-08T04:22:37.784Z,3.20
2022-10-08T04:25:06.923Z,3.70
2022-10-08T04:27:34.451Z,3.23
2022-10-08T04:30:02.032Z,2.93
2022-10-08T04:32:29.610Z,3.17
2022-10-08T04:34:57.309Z,2.93
2022-10-08T04:37:24.911Z,2.93
2022-10-08T04:39:52.547Z,3.17
2022-10-08T04:42:21.505Z,3.50
2022-10-08T04:44:49.097Z,3.17
2022-10-08T04:47:16.719Z,3.07
2022-10-08T04:49:44.619Z,3.40
2022-10-08T04:52:13.713Z,3.27
2022-10-08T04:54:41.304Z,3.50
2022-10-08T04:57:08.945Z,3.20
2022-10-08T04:59:49.202Z,3.03
2022-10-08T05:02:25.546Z,3.00
2022-10-08T05:04:53.149Z,2.77
2022-10-08T05:07:20.776Z,3.07
2022-10-08T05:09:48.441Z,2.70
2022-10-08T05:12:15.999Z,2.73
2022-10-08T05:14:44.868Z,2.57
2022-10-08T05:17:12.523Z,2.77
2022-10-08T05:19:40.095Z,3.40
2022-10-08T05:22:07.700Z,3.03
2022-10-08T05:24:35.407Z,3.23
2022-10-08T05:27:02.963Z,2.90
2022-10-08T05:29:30.590Z,2.70
2022-10-08T05:31:59.605Z,2.90
2022-10-08T05:34:27.191Z,3.27
2022-10-08T05:36:55.016Z,2.80
2022-10-08T05:39:22.669Z,2.73
2022-10-08T05:41:50.469Z,3.13
2022-10-08T05:44:18.027Z,3.30
2022-10-08T05:46:45.734Z,2.73
2022-10-08T05:49:19.443Z,2.93
2022-10-08T05:51:47.227Z,3.40
2022-10-08T05:54:14.797Z,3.03
2022-10-08T05:56:42.395Z,3.17
2022-10-08T05:59:14.552Z,3.03
2022-10-08T06:01:42.126Z,3.80
2022-10-08T06:04:11.631Z,3.27
2022-10-08T06:06:42.165Z,3.10
2022-10-08T06:09:12.170Z,3.77
2022-10-08T06:11:40.050Z,3.37
2022-10-08T06:14:08.781Z,2.97
2022-10-08T06:16:36.825Z,2.77
2022-10-08T06:19:06.123Z,2.80
2022-10-08T06:21:37.459Z,3.30
2022-10-08T06:24:08.659Z,2.80
2022-10-08T06:26:38.107Z,2.90
2022-10-08T06:29:06.564Z,3.00
2022-10-08T06:31:34.593Z,2.70
2022-10-08T06:34:04.225Z,3.03
2022-10-08T06:36:32.514Z,2.97
2022-10-08T06:39:01.711Z,3.50
2022-10-08T06:41:33.254Z,2.73
2022-10-08T06:44:00.811Z,2.67
2022-10-08T06:46:31.279Z,3.10
2022-10-08T06:48:59.228Z,2.60
2022-10-08T06:51:27.779Z,2.93
2022-10-08T06:54:01.465Z,3.00
2022-10-08T06:56:35.985Z,2.77
2022-10-08T06:59:03.850Z,3.00
2022-10-08T07:01:33.920Z,3.00
2022-10-08T07:04:02.416Z,2.70
2022-10-08T07:06:30.012Z,2.70
2022-10-08T07:08:59.284Z,2.83
2022-10-08T07:11:27.486Z,3.17
2022-10-08T07:13:57.315Z,3.30
2022-10-08T07:16:26.497Z,3.27
2022-10-08T07:18:56.048Z,3.43
2022-10-08T07:21:24.107Z,2.90
2022-10-08T07:23:53.005Z,3.00
2022-10-08T07:26:22.322Z,3.10
2022-10-08T07:28:51.825Z,2.57
2022-10-08T07:31:22.493Z,3.20
2022-10-08T07:33:50.424Z,2.57
2022-10-08T07:36:19.755Z,2.60
2022-10-08T07:38:48.295Z,3.00
2022-10-08T07:41:16.124Z,2.60
2022-10-08T07:43:43.947Z,2.30
2022-10-08T07:46:12.431Z,2.63
2022-10-08T07:48:42.013Z,2.50
2022-10-08T07:51:10.852Z,2.53
2022-10-08T07:53:38.481Z,2.60
2022-10-08T07:56:06.677Z,2.27
2022-10-08T07:58:34.254Z,2.23
2022-10-08T08:01:03.945Z,2.00
2022-10-08T08:03:31.761Z,2.20
2022-10-08T08:06:03.328Z,2.50
2022-10-08T08:08:31.091Z,2.77
2022-10-08T08:10:58.951Z,2.40
2022-10-08T08:13:26.969Z,2.57
2022-10-08T08:15:58.595Z,2.50
2022-10-08T08:18:28.831Z,2.43
2022-10-08T08:21:00.153Z,2.70
2022-10-08T08:23:35.247Z,2.47
2022-10-08T08:26:03.293Z,2.27
2022-10-08T08:28:31.068Z,2.63
2022-10-08T08:31:08.150Z,2.80
2022-10-08T08:33:35.962Z,2.07
2022-10-08T08:36:04.040Z,2.40
2022-10-08T08:38:35.337Z,2.20
2022-10-08T08:41:12.692Z,2.10
2022-10-08T08:43:41.215Z,1.97
2022-10-08T08:46:08.815Z,2.07
2022-10-08T08:48:37.957Z,2.03
2022-10-08T08:51:05.723Z,2.10
2022-10-08T08:53:34.837Z,1.77
2022-10-08T08:56:06.030Z,2.33
2022-10-08T08:58:38.935Z,2.30
2022-10-08T09:01:15.823Z,2.10
2022-10-08T09:03:45.401Z,2.40
2022-10-08T09:06:15.018Z,2.27
2022-10-08T09:08:46.758Z,2.10
2022-10-08T09:11:16.101Z,2.50
2022-10-08T09:13:51.325Z,2.13
2022-10-08T09:16:23.878Z,2.80
2022-10-08T09:18:52.887Z,2.10
2022-10-08T09:21:21.137Z,2.67
2022-10-08T09:23:50.055Z,2.57
2022-10-08T09:26:20.889Z,2.30
2022-10-08T09:28:50.051Z,2.10
2022-10-08T09:31:29.514Z,2.00
2022-10-08T09:34:01.584Z,2.10
2022-10-08T09:36:31.066Z,2.13
2022-10-08T09:39:01.739Z,2.23
2022-10-08T09:41:30.262Z,1.60
2022-10-08T09:44:16.528Z,2.23
2022-10-08T09:46:44.386Z,1.60
2022-10-08T09:49:32.092Z,2.10
2022-10-08T09:52:02.174Z,1.47
2022-10-08T09:54:32.559Z,2.00
2022-10-08T09:57:01.119Z,1.83
2022-10-08T09:59:30.347Z,2.10
2022-10-08T10:01:58.812Z,1.90
2022-10-08T10:04:33.198Z,1.73
2022-10-08T10:07:01.112Z,2.00
2022-10-08T10:09:39.526Z,1.90
2022-10-08T10:12:14.798Z,2.43
2022-10-08T10:14:44.816Z,1.73
2022-10-08T10:17:15.878Z,1.70
2022-10-08T10:19:48.918Z,2.00
2022-10-08T10:22:20.761Z,1.90
2022-10-08T10:24:54.261Z,2.00
2022-10-08T10:27:32.464Z,2.17
2022-10-08T10:30:05.868Z,2.20
2022-10-08T10:32:38.056Z,2.07
2022-10-08T10:35:11.455Z,1.40
2022-10-08T10:37:45.604Z,1.90
2022-10-08T10:40:32.107Z,1.47
2022-10-08T10:43:07.899Z,1.93
2022-10-08T10:45:36.088Z,1.83
2022-10-08T10:48:03.943Z,2.03
2022-10-08T10:50:46.409Z,1.70
2022-10-08T10:53:19.543Z,1.83
2022-10-08T10:55:54.906Z,2.10
2022-10-08T10:58:31.926Z,1.40
2022-10-08T11:01:05.446Z,2.13
2022-10-08T11:03:39.747Z,1.50
2022-10-08T11:06:23.626Z,2.20
2022-10-08T11:08:57.634Z,1.70
2022-10-08T11:11:33.179Z,2.10
2022-10-08T11:14:09.044Z,1.97
2022-10-08T11:16:47.899Z,2.47
2022-10-08T11:19:26.748Z,1.57
2022-10-08T11:21:59.876Z,1.70
2022-10-08T11:24:40.338Z,1.93
2022-10-08T11:27:13.839Z,1.70
2022-10-08T11:29:45.447Z,2.10
2022-10-08T11:32:14.909Z,1.70
2022-10-08T11:34:47.578Z,2.00
2022-10-08T11:37:22.718Z,1.90
2022-10-08T11:39:55.010Z,2.17
2022-10-08T11:42:35.647Z,1.93
2022-10-08T11:45:32.424Z,1.60
2022-10-08T11:48:00.907Z,2.00
2022-10-08T11:50:31.255Z,1.97
2022-10-08T11:53:02.451Z,2.07
2022-10-08T11:55:31.973Z,1.97
2022-10-08T11:58:09.952Z,1.80
2022-10-08T12:00:42.861Z,2.20
2022-10-08T12:03:22.841Z,2.17
2022-10-08T12:05:53.468Z,2.03
2022-10-08T12:08:53.177Z,1.90
2022-10-08T12:11:53.979Z,1.67
2022-10-08T12:14:48.041Z,2.37
2022-10-08T12:17:16.783Z,1.90
2022-10-08T12:20:03.180Z,1.83
2022-10-08T12:23:16.421Z,2.00
2022-10-08T12:26:14.412Z,2.17
2022-10-08T12:28:50.752Z,2.17
2022-10-08T12:31:29.273Z,1.90
2022-10-08T12:34:02.748Z,1.70
2022-10-08T12:36:38.160Z,2.10
2022-10-08T12:39:15.203Z,1.70
2022-10-08T12:41:51.188Z,1.70
2022-10-08T12:44:30.575Z,2.03
2022-10-08T12:47:12.205Z,1.80
2022-10-08T12:49:46.363Z,1.90
2022-10-08T12:52:14.965Z,1.80
2022-10-08T12:54:50.726Z,1.90
2022-10-08T12:57:38.533Z,1.50
2022-10-08T13:00:22.491Z,2.20
2022-10-08T13:03:18.209Z,1.93
2022-10-08T13:06:02.417Z,1.60
2022-10-08T13:08:42.810Z,1.90
2022-10-08T13:11:23.211Z,1.87
2022-10-08T13:13:52.880Z,2.10
2022-10-08T13:16:26.157Z,2.13
2022-10-08T13:19:05.059Z,1.80
2022-10-08T13:21:39.113Z,1.90
2022-10-08T13:24:34.281Z,1.90
2022-10-08T13:33:13.528Z,1.80
2022-10-08T13:35:52.772Z,1.80
2022-10-08T13:38:23.294Z,1.73
2022-10-08T13:41:03.049Z,1.87
2022-10-08T13:43:31.603Z,1.50
2022-10-08T13:45:59.975Z,1.80
2022-10-08T13:48:27.687Z,1.70
2022-10-08T13:50:57.492Z,1.77
2022-10-08T13:53:26.748Z,1.90
2022-10-08T13:55:54.629Z,1.80
2022-10-08T13:58:22.309Z,1.33
2022-10-08T14:00:50.410Z,2.00
2022-10-08T14:03:18.599Z,2.17
2022-10-08T14:05:47.759Z,2.03
2022-10-08T14:08:19.032Z,1.97
2022-10-08T14:10:47.079Z,1.97
2022-10-08T14:13:15.908Z,1.80
2022-10-08T14:15:43.641Z,1.83
2022-10-08T14:18:11.294Z,2.20
2022-10-08T14:20:39.188Z,1.93
2022-10-08T14:23:06.910Z,1.77
2022-10-08T14:25:35.864Z,1.67
2022-10-08T14:28:03.568Z,1.70
2022-10-08T14:30:31.174Z,1.57
2022-10-08T14:32:58.780Z,1.43
2022-10-08T14:35:26.342Z,2.00
2022-10-08T14:37:53.942Z,1.60
2022-10-08T14:40:22.833Z,1.47
2022-10-08T14:42:52.107Z,2.00
2022-10-08T14:45:19.877Z,1.40
2022-10-08T14:47:47.453Z,1.50
2022-10-08T14:50:15.207Z,1.80
2022-10-08T14:52:44.594Z,1.20
2022-10-08T14:55:13.234Z,1.80
2022-10-08T14:57:40.825Z,1.57
2022-10-08T15:00:11.098Z,1.83
2022-10-08T15:02:38.685Z,1.57
2022-10-08T15:05:07.273Z,1.53
2022-10-08T15:07:34.825Z,1.63
2022-10-08T15:10:02.458Z,1.17
2022-10-08T15:12:30.155Z,1.57
2022-10-08T15:14:57.718Z,1.60
2022-10-08T15:17:26.639Z,1.30
2022-10-08T15:19:54.343Z,1.50
2022-10-08T15:22:21.864Z,1.37
2022-10-08T15:24:49.545Z,1.50
2022-10-08T15:27:20.578Z,1.30
2022-10-08T15:29:48.711Z,1.20
2022-10-08T15:32:16.615Z,1.30
2022-10-08T15:34:45.604Z,1.17
2022-10-08T15:37:14.586Z,1.53
2022-10-08T15:39:42.246Z,1.70
2022-10-08T15:42:11.980Z,1.50
2022-10-08T15:44:39.967Z,1.47
2022-10-08T15:47:11.482Z,1.23
2022-10-08T15:49:40.251Z,1.97
2022-10-08T15:52:10.650Z,1.67
2022-10-08T15:54:38.727Z,2.00
2022-10-08T15:57:06.957Z,1.67
2022-10-08T15:59:35.026Z,2.07
2022-10-08T16:02:03.104Z,1.70
2022-10-08T16:04:30.760Z,2.03
2022-10-08T16:06:58.387Z,1.97
2022-10-08T16:09:37.526Z,1.87
2022-10-08T16:12:12.507Z,2.23
2022-10-08T16:14:45.170Z,2.20
2022-10-08T16:17:27.148Z,1.87
2022-10-08T16:19:55.101Z,1.83
2022-10-08T16:22:22.718Z,2.53
2022-10-08T16:24:51.651Z,1.67
2022-10-08T16:27:19.504Z,1.83
2022-10-08T16:29:47.048Z,2.53
2022-10-08T16:32:15.938Z,1.83
2022-10-08T16:34:45.304Z,1.50
2022-10-08T16:37:13.634Z,1.70
2022-10-08T16:39:41.296Z,1.40
2022-10-08T16:42:10.313Z,1.67
2022-10-08T16:44:37.911Z,1.77
2022-10-08T16:47:11.731Z,1.60
2022-10-08T16:49:49.779Z,1.73
2022-10-08T16:52:21.010Z,1.60
2022-10-08T16:54:54.516Z,1.57
2022-10-08T16:57:24.786Z,1.60
2022-10-08T16:59:52.408Z,1.67
2022-10-08T17:02:24.967Z,1.80
2022-10-08T17:04:53.649Z,2.20
2022-10-08T17:07:21.218Z,1.90
2022-10-08T17:09:48.797Z,1.90
2022-10-08T17:12:20.964Z,1.80
2022-10-08T17:14:50.604Z,1.80
2022-10-08T17:17:18.288Z,2.37
2022-10-08T17:19:45.956Z,2.20
2022-10-08T17:22:16.269Z,2.30
2022-10-08T17:24:43.873Z,2.40
2022-10-08T17:27:13.285Z,1.43
2022-10-08T17:29:41.084Z,1.80
2022-10-08T17:32:11.476Z,1.93
2022-10-08T17:34:39.210Z,1.83
2022-10-08T17:37:07.055Z,1.60
2022-10-08T17:39:34.876Z,2.20
2022-10-08T17:42:06.811Z,1.70
2022-10-08T17:44:34.753Z,1.27
2022-10-08T17:47:02.341Z,1.50
2022-10-08T17:49:32.743Z,1.90
2022-10-08T17:52:00.384Z,1.70
2022-10-08T17:54:28.030Z,1.80
2022-10-08T17:56:55.793Z,1.70
2022-10-08T17:59:23.591Z,1.60
2022-10-08T18:01:51.575Z,1.93
2022-10-08T18:04:20.085Z,2.00
2022-10-08T18:06:49.040Z,1.40
2022-10-08T18:09:18.312Z,2.07
2022-10-08T18:11:47.558Z,1.60
2022-10-08T18:14:17.035Z,1.60
2022-10-08T18:16:48.098Z,1.47
2022-10-08T18:19:16.168Z,1.93
2022-10-08T18:21:43.798Z,1.80
2022-10-08T18:24:12.724Z,2.27
2022-10-08T18:26:40.402Z,1.70
2022-10-08T18:29:09.742Z,1.83
2022-10-08T18:31:38.666Z,1.97
2022-10-08T18:34:08.937Z,1.80
2022-10-08T18:36:37.967Z,2.00
2022-10-08T18:39:08.234Z,1.60
2022-10-08T18:41:41.273Z,1.60
2022-10-08T18:44:11.469Z,1.73
2022-10-08T18:46:40.086Z,1.43
2022-10-08T18:49:07.914Z,1.40
2022-10-08T18:51:35.660Z,1.47
2022-10-08T18:54:03.258Z,1.40
2022-10-08T18:56:38.036Z,1.57
2022-10-08T18:59:22.144Z,1.53
2022-10-08T19:02:01.722Z,2.27
2022-10-08T19:04:42.519Z,1.50
2022-10-08T19:07:10.887Z,1.57
2022-10-08T19:09:39.819Z,1.50
2022-10-08T19:12:08.063Z,1.30
2022-10-08T19:14:37.128Z,1.20
2022-10-08T19:17:04.678Z,1.30
2022-10-08T19:19:32.697Z,1.60
2022-10-08T19:22:01.792Z,1.57
2022-10-08T19:24:29.844Z,1.47
2022-10-08T19:26:58.241Z,1.23
2022-10-08T19:29:28.850Z,1.53
2022-10-08T19:31:57.875Z,1.67
2022-10-08T19:34:27.335Z,1.50
2022-10-08T19:36:55.228Z,1.50
2022-10-08T19:39:24.242Z,1.80
2022-10-08T19:41:52.057Z,2.10
2022-10-08T19:44:20.473Z,1.97
2022-10-08T19:46:48.292Z,1.70
2022-10-08T19:49:17.691Z,1.70
2022-10-08T19:51:45.524Z,1.70
2022-10-08T19:54:13.196Z,1.87
2022-10-08T19:56:41.161Z,1.40
2022-10-08T19:59:10.544Z,2.00
2022-10-08T20:01:39.135Z,1.80
2022-10-08T20:04:07.984Z,1.90
2022-10-08T20:06:39.580Z,2.47
2022-10-08T20:09:10.168Z,2.13
2022-10-08T20:11:37.725Z,4.17
2022-10-08T20:14:05.907Z,5.13
2022-10-08T20:16:35.302Z,3.83
2022-10-08T20:19:05.470Z,3.20
2022-10-08T20:21:37.338Z,2.60
2022-10-08T20:24:06.198Z,2.37
2022-10-08T20:26:34.878Z,2.40
2022-10-08T20:29:03.979Z,1.90
2022-10-08T20:31:33.298Z,1.70
2022-10-08T20:34:02.503Z,2.10
2022-10-08T20:36:31.038Z,1.80
2022-10-08T20:39:03.574Z,2.30
2022-10-08T20:41:31.518Z,1.90
2022-10-08T20:44:01.109Z,1.97
2022-10-08T20:46:28.975Z,1.70
2022-10-08T20:48:57.122Z,1.60
2022-10-08T20:51:26.519Z,1.90
2022-10-08T20:53:56.400Z,1.73
2022-10-08T20:56:26.258Z,1.73
2022-10-08T20:58:54.184Z,1.47
2022-10-08T21:01:23.504Z,1.60
2022-10-08T21:03:51.686Z,1.80
2022-10-08T21:06:20.886Z,2.20
2022-10-08T21:08:50.634Z,2.07
2022-10-08T21:11:20.656Z,2.30
2022-10-08T21:13:49.854Z,2.70
2022-10-08T21:16:19.952Z,2.13
2022-10-08T21:18:50.582Z,1.90
2022-10-08T21:21:19.032Z,1.80
2022-10-08T21:23:49.547Z,2.00
2022-10-08T21:26:18.510Z,1.53
2022-10-08T21:28:47.840Z,1.70
2022-10-08T21:31:17.549Z,1.90
2022-10-08T21:33:46.459Z,2.00
2022-10-08T21:36:16.486Z,1.50
2022-10-08T21:38:44.315Z,1.60
2022-10-08T21:41:13.673Z,1.80
2022-10-08T21:43:42.680Z,2.07
2022-10-08T21:46:11.953Z,1.80
2022-10-08T21:48:41.234Z,2.37
2022-10-08T21:51:10.454Z,2.00
2022-10-08T21:53:40.000Z,1.80
2022-10-08T21:56:09.185Z,1.70
2022-10-08T21:58:38.458Z,1.90
2022-10-08T22:01:06.718Z,1.60
2022-10-08T22:03:34.776Z,1.90
2022-10-08T22:06:05.235Z,1.67
2022-10-08T22:08:33.017Z,2.00
2022-10-08T22:11:00.795Z,1.50
2022-10-08T22:13:28.418Z,1.77
2022-10-08T22:15:57.826Z,3.70
2022-10-08T22:18:26.615Z,2.40
2022-10-08T22:20:54.612Z,1.80
2022-10-08T22:23:24.970Z,1.93
2022-10-08T22:25:53.880Z,1.60
2022-10-08T22:28:21.952Z,1.70
2022-10-08T22:30:49.937Z,4.43
2022-10-08T22:33:17.880Z,4.20
2022-10-08T22:35:45.758Z,3.00
2022-10-08T22:38:13.515Z,3.17
2022-10-08T22:40:42.589Z,3.10
2022-10-08T22:43:10.226Z,2.90
2022-10-08T22:45:38.907Z,2.40
2022-10-08T22:48:06.655Z,3.07
2022-10-08T22:50:35.318Z,2.40
2022-10-08T22:53:03.318Z,1.93
2022-10-08T22:55:31.410Z,2.37
2022-10-08T22:58:00.480Z,1.80
2022-10-08T23:00:28.219Z,1.90
2022-10-08T23:02:55.897Z,2.03
2022-10-08T23:05:23.515Z,1.57
2022-10-08T23:07:55.245Z,1.60
2022-10-08T23:10:22.944Z,1.50
2022-10-08T23:12:51.082Z,1.80
2022-10-08T23:15:20.168Z,1.70
2022-10-08T23:17:47.835Z,1.70
2022-10-08T23:20:15.639Z,1.83
2022-10-08T23:22:43.153Z,3.20
2022-10-08T23:25:11.000Z,2.03
2022-10-08T23:27:38.563Z,2.00
2022-10-08T23:30:20.741Z,2.23
2022-10-08T23:32:55.908Z,1.70
2022-10-08T23:35:23.518Z,2.53
2022-10-08T23:37:51.029Z,2.10
2022-10-08T23:40:18.594Z,1.60
2022-10-08T23:42:46.493Z,1.90
2022-10-08T23:45:14.479Z,1.20
2022-10-08T23:47:42.037Z,1.67
2022-10-08T23:50:11.364Z,1.57
2022-10-08T23:52:38.915Z,2.13
2022-10-08T23:55:07.257Z,1.80
2022-10-08T23:57:34.855Z,1.93
